sensor_id;sensor_type;location;lat;lon;timestamp;temperature;humidity
23703;DHT22;12030;50.376;8.762;2023-06-24T00:00:27;14.20;99.90
23703;DHT22;12030;50.376;8.762;2023-06-24T00:02:52;14.20;99.90
23703;DHT22;12030;50.376;8.762;2023-06-24T00:05:19;14.20;99.90
23703;DHT22;12030;50.376;8.762;2023-06-24T00:07:45;14.20;99.90
23703;DHT22;12030;50.376;8.762;2023-06-24T00:10:14;14.20;99.90
23703;DHT22;12030;50.376;8.762;2023-06-24T00:12:40;14.20;99.90
23703;DHT22;12030;50.376;8.762;2023-06-24T00:15:07;14.10;99.90
23703;DHT22;12030;50.376;8.762;2023-06-24T00:17:35;14.00;99.90
23703;DHT22;12030;50.376;8.762;2023-06-24T00:20:00;13.90;99.90
23703;DHT22;12030;50.376;8.762;2023-06-24T00:22:26;13.80;99.90
23703;DHT22;12030;50.376;8.762;2023-06-24T00:24:51;13.80;99.90
23703;DHT22;12030;50.376;8.762;2023-06-24T00:27:17;13.70;99.90
23703;DHT22;12030;50.376;8.762;2023-06-24T00:29:42;13.70;99.90
23703;DHT22;12030;50.376;8.762;2023-06-24T00:32:08;13.80;99.90
23703;DHT22;12030;50.376;8.762;2023-06-24T00:34:34;13.80;99.90
23703;DHT22;12030;50.376;8.762;2023-06-24T00:36:59;13.70;99.90
23703;DHT22;12030;50.376;8.762;2023-06-24T00:39:25;13.60;99.90
23703;DHT22;12030;50.376;8.762;2023-06-24T00:41:50;13.60;99.90
23703;DHT22;12030;50.376;8.762;2023-06-24T00:44:16;13.60;99.90
23703;DHT22;12030;50.376;8.762;2023-06-24T00:46:42;13.70;99.90
23703;DHT22;12030;50.376;8.762;2023-06-24T00:49:08;13.60;99.90
23703;DHT22;12030;50.376;8.762;2023-06-24T00:51:33;13.60;99.90
23703;DHT22;12030;50.376;8.762;2023-06-24T00:54:01;13.50;99.90
23703;DHT22;12030;50.376;8.762;2023-06-24T00:56:36;13.50;99.90
23703;DHT22;12030;50.376;8.762;2023-06-24T00:59:08;13.40;99.90
23703;DHT22;12030;50.376;8.762;2023-06-24T01:01:35;13.40;99.90
23703;DHT22;12030;50.376;8.762;2023-06-24T01:04:02;13.40;99.90
23703;DHT22;12030;50.376;8.762;2023-06-24T01:06:29;13.40;99.90
23703;DHT22;12030;50.376;8.762;2023-06-24T01:08:59;13.40;99.90
23703;DHT22;12030;50.376;8.762;2023-06-24T01:11:28;13.40;99.90
23703;DHT22;12030;50.376;8.762;2023-06-24T01:13:54;13.50;99.90
23703;DHT22;12030;50.376;8.762;2023-06-24T01:18:54;13.50;99.90
23703;DHT22;12030;50.376;8.762;2023-06-24T01:21:53;13.50;99.90
23703;DHT22;12030;50.376;8.762;2023-06-24T01:33:41;13.30;99.90
23703;DHT22;12030;50.376;8.762;2023-06-24T01:36:11;13.20;99.90
23703;DHT22;12030;50.376;8.762;2023-06-24T01:38:44;13.10;99.90
23703;DHT22;12030;50.376;8.762;2023-06-24T01:41:13;13.30;99.90
23703;DHT22;12030;50.376;8.762;2023-06-24T01:43:42;13.20;99.90
23703;DHT22;12030;50.376;8.762;2023-06-24T01:46:09;13.30;99.90
23703;DHT22;12030;50.376;8.762;2023-06-24T01:48:36;13.30;99.90
23703;DHT22;12030;50.376;8.762;2023-06-24T01:51:18;13.20;99.90
23703;DHT22;12030;50.376;8.762;2023-06-24T01:53:49;13.20;99.90
23703;DHT22;12030;50.376;8.762;2023-06-24T01:56:15;13.10;99.90
23703;DHT22;12030;50.376;8.762;2023-06-24T01:58:43;13.00;99.90
23703;DHT22;12030;50.376;8.762;2023-06-24T02:01:10;13.10;99.90
23703;DHT22;12030;50.376;8.762;2023-06-24T02:03:37;13.00;99.90
23703;DHT22;12030;50.376;8.762;2023-06-24T02:06:06;13.10;99.90
23703;DHT22;12030;50.376;8.762;2023-06-24T02:08:36;13.00;99.90
23703;DHT22;12030;50.376;8.762;2023-06-24T02:11:04;13.00;99.90
23703;DHT22;12030;50.376;8.762;2023-06-24T02:13:31;13.00;99.90
23703;DHT22;12030;50.376;8.762;2023-06-24T02:16:01;13.10;99.90
23703;DHT22;12030;50.376;8.762;2023-06-24T02:18:28;13.20;99.90
23703;DHT22;12030;50.376;8.762;2023-06-24T02:20:56;13.20;99.90
23703;DHT22;12030;50.376;8.762;2023-06-24T02:23:22;13.10;99.90
23703;DHT22;12030;50.376;8.762;2023-06-24T02:25:49;13.00;99.90
23703;DHT22;12030;50.376;8.762;2023-06-24T02:28:17;13.00;99.90
23703;DHT22;12030;50.376;8.762;2023-06-24T02:30:43;13.00;99.90
23703;DHT22;12030;50.376;8.762;2023-06-24T02:33:10;13.00;99.90
23703;DHT22;12030;50.376;8.762;2023-06-24T02:35:37;13.00;99.90
23703;DHT22;12030;50.376;8.762;2023-06-24T02:38:03;13.10;99.90
23703;DHT22;12030;50.376;8.762;2023-06-24T02:40:28;13.10;99.90
23703;DHT22;12030;50.376;8.762;2023-06-24T02:42:54;13.10;99.90
23703;DHT22;12030;50.376;8.762;2023-06-24T02:45:20;13.10;99.90
23703;DHT22;12030;50.376;8.762;2023-06-24T02:47:47;13.10;99.90
23703;DHT22;12030;50.376;8.762;2023-06-24T02:50:13;13.00;99.90
23703;DHT22;12030;50.376;8.762;2023-06-24T02:52:40;13.00;99.90
23703;DHT22;12030;50.376;8.762;2023-06-24T02:55:06;12.90;99.90
23703;DHT22;12030;50.376;8.762;2023-06-24T02:57:33;12.90;99.90
23703;DHT22;12030;50.376;8.762;2023-06-24T03:00:02;12.90;99.90
23703;DHT22;12030;50.376;8.762;2023-06-24T03:02:28;12.90;99.90
23703;DHT22;12030;50.376;8.762;2023-06-24T03:04:54;12.90;99.90
23703;DHT22;12030;50.376;8.762;2023-06-24T03:07:20;13.00;99.90
23703;DHT22;12030;50.376;8.762;2023-06-24T03:09:46;13.00;99.90
23703;DHT22;12030;50.376;8.762;2023-06-24T03:12:12;12.90;99.90
23703;DHT22;12030;50.376;8.762;2023-06-24T03:14:37;12.90;99.90
23703;DHT22;12030;50.376;8.762;2023-06-24T03:17:03;12.90;99.90
23703;DHT22;12030;50.376;8.762;2023-06-24T03:19:29;12.90;99.90
23703;DHT22;12030;50.376;8.762;2023-06-24T03:21:54;12.90;99.90
23703;DHT22;12030;50.376;8.762;2023-06-24T03:24:20;12.90;99.90
23703;DHT22;12030;50.376;8.762;2023-06-24T03:26:46;12.90;99.90
23703;DHT22;12030;50.376;8.762;2023-06-24T03:29:11;13.00;99.90
23703;DHT22;12030;50.376;8.762;2023-06-24T03:31:37;13.10;99.90
23703;DHT22;12030;50.376;8.762;2023-06-24T03:34:03;13.20;99.90
23703;DHT22;12030;50.376;8.762;2023-06-24T03:36:28;13.20;99.90
23703;DHT22;12030;50.376;8.762;2023-06-24T03:38:54;13.20;99.90
23703;DHT22;12030;50.376;8.762;2023-06-24T03:41:19;13.10;99.90
23703;DHT22;12030;50.376;8.762;2023-06-24T03:43:46;13.00;99.90
23703;DHT22;12030;50.376;8.762;2023-06-24T03:46:11;13.00;99.90
23703;DHT22;12030;50.376;8.762;2023-06-24T03:48:37;13.10;99.90
23703;DHT22;12030;50.376;8.762;2023-06-24T03:51:02;13.00;99.90
23703;DHT22;12030;50.376;8.762;2023-06-24T03:53:28;13.10;99.90
23703;DHT22;12030;50.376;8.762;2023-06-24T03:55:53;13.10;99.90
23703;DHT22;12030;50.376;8.762;2023-06-24T03:58:19;13.20;99.90
23703;DHT22;12030;50.376;8.762;2023-06-24T04:00:47;13.10;99.90
23703;DHT22;12030;50.376;8.762;2023-06-24T04:03:17;13.10;99.90
23703;DHT22;12030;50.376;8.762;2023-06-24T04:05:45;13.10;99.90
23703;DHT22;12030;50.376;8.762;2023-06-24T04:08:11;13.00;99.90
23703;DHT22;12030;50.376;8.762;2023-06-24T04:10:37;13.10;99.90
23703;DHT22;12030;50.376;8.762;2023-06-24T04:13:02;13.20;99.90
23703;DHT22;12030;50.376;8.762;2023-06-24T04:15:28;13.30;99.90
23703;DHT22;12030;50.376;8.762;2023-06-24T04:17:53;13.30;99.90
23703;DHT22;12030;50.376;8.762;2023-06-24T04:20:19;13.30;99.90
23703;DHT22;12030;50.376;8.762;2023-06-24T04:22:44;13.30;99.90
23703;DHT22;12030;50.376;8.762;2023-06-24T04:25:10;13.30;99.90
23703;DHT22;12030;50.376;8.762;2023-06-24T04:27:36;13.30;99.90
23703;DHT22;12030;50.376;8.762;2023-06-24T04:30:03;13.30;99.90
23703;DHT22;12030;50.376;8.762;2023-06-24T04:32:29;13.40;99.90
23703;DHT22;12030;50.376;8.762;2023-06-24T04:34:54;13.50;99.90
23703;DHT22;12030;50.376;8.762;2023-06-24T04:37:20;13.60;99.90
23703;DHT22;12030;50.376;8.762;2023-06-24T04:39:47;13.70;99.90
23703;DHT22;12030;50.376;8.762;2023-06-24T04:42:14;13.80;99.90
23703;DHT22;12030;50.376;8.762;2023-06-24T04:44:40;13.90;99.90
23703;DHT22;12030;50.376;8.762;2023-06-24T04:47:05;14.00;99.90
23703;DHT22;12030;50.376;8.762;2023-06-24T04:49:31;14.00;99.90
23703;DHT22;12030;50.376;8.762;2023-06-24T04:51:59;14.10;99.90
23703;DHT22;12030;50.376;8.762;2023-06-24T04:54:24;14.20;99.90
23703;DHT22;12030;50.376;8.762;2023-06-24T04:56:50;14.20;99.90
23703;DHT22;12030;50.376;8.762;2023-06-24T04:59:17;14.30;99.90
23703;DHT22;12030;50.376;8.762;2023-06-24T05:01:42;14.40;99.90
23703;DHT22;12030;50.376;8.762;2023-06-24T05:04:07;14.40;99.90
23703;DHT22;12030;50.376;8.762;2023-06-24T05:06:33;14.50;99.90
23703;DHT22;12030;50.376;8.762;2023-06-24T05:08:58;14.50;99.90
23703;DHT22;12030;50.376;8.762;2023-06-24T05:11:24;14.60;99.90
23703;DHT22;12030;50.376;8.762;2023-06-24T05:13:49;14.70;99.90
23703;DHT22;12030;50.376;8.762;2023-06-24T05:16:15;14.80;99.90
23703;DHT22;12030;50.376;8.762;2023-06-24T05:18:43;14.90;99.90
23703;DHT22;12030;50.376;8.762;2023-06-24T05:21:08;15.00;99.90
23703;DHT22;12030;50.376;8.762;2023-06-24T05:23:34;15.10;99.90
23703;DHT22;12030;50.376;8.762;2023-06-24T05:25:59;15.20;99.90
23703;DHT22;12030;50.376;8.762;2023-06-24T05:28:25;15.30;99.90
23703;DHT22;12030;50.376;8.762;2023-06-24T05:30:50;15.40;99.90
23703;DHT22;12030;50.376;8.762;2023-06-24T05:33:16;15.60;99.90
23703;DHT22;12030;50.376;8.762;2023-06-24T05:35:43;15.70;99.90
23703;DHT22;12030;50.376;8.762;2023-06-24T05:38:09;15.70;99.90
23703;DHT22;12030;50.376;8.762;2023-06-24T05:40:34;15.90;99.90
23703;DHT22;12030;50.376;8.762;2023-06-24T05:43:00;16.00;99.90
23703;DHT22;12030;50.376;8.762;2023-06-24T05:45:26;16.20;99.90
23703;DHT22;12030;50.376;8.762;2023-06-24T05:47:52;16.20;99.90
23703;DHT22;12030;50.376;8.762;2023-06-24T05:50:17;16.30;99.90
23703;DHT22;12030;50.376;8.762;2023-06-24T05:52:43;16.40;99.90
23703;DHT22;12030;50.376;8.762;2023-06-24T05:55:08;16.60;99.90
23703;DHT22;12030;50.376;8.762;2023-06-24T05:57:34;16.70;99.90
23703;DHT22;12030;50.376;8.762;2023-06-24T06:00:00;16.80;99.90
23703;DHT22;12030;50.376;8.762;2023-06-24T06:02:25;16.90;99.90
23703;DHT22;12030;50.376;8.762;2023-06-24T06:04:51;17.00;99.90
23703;DHT22;12030;50.376;8.762;2023-06-24T06:07:16;17.20;99.90
23703;DHT22;12030;50.376;8.762;2023-06-24T06:09:42;17.30;99.90
23703;DHT22;12030;50.376;8.762;2023-06-24T06:12:08;17.40;99.90
23703;DHT22;12030;50.376;8.762;2023-06-24T06:14:34;17.60;99.90
23703;DHT22;12030;50.376;8.762;2023-06-24T06:16:59;17.60;99.90
23703;DHT22;12030;50.376;8.762;2023-06-24T06:19:25;17.70;99.90
23703;DHT22;12030;50.376;8.762;2023-06-24T06:21:51;17.80;99.90
23703;DHT22;12030;50.376;8.762;2023-06-24T06:24:17;17.90;99.90
23703;DHT22;12030;50.376;8.762;2023-06-24T06:26:43;18.10;99.90
23703;DHT22;12030;50.376;8.762;2023-06-24T06:29:11;18.10;99.90
23703;DHT22;12030;50.376;8.762;2023-06-24T06:31:37;18.20;99.90
23703;DHT22;12030;50.376;8.762;2023-06-24T06:34:03;18.40;99.90
23703;DHT22;12030;50.376;8.762;2023-06-24T06:36:29;18.50;99.90
23703;DHT22;12030;50.376;8.762;2023-06-24T06:38:54;18.60;99.90
23703;DHT22;12030;50.376;8.762;2023-06-24T06:41:20;18.80;99.90
23703;DHT22;12030;50.376;8.762;2023-06-24T06:43:52;18.90;99.90
23703;DHT22;12030;50.376;8.762;2023-06-24T06:46:17;18.90;99.90
23703;DHT22;12030;50.376;8.762;2023-06-24T06:48:43;19.10;99.90
23703;DHT22;12030;50.376;8.762;2023-06-24T06:51:08;19.20;99.90
23703;DHT22;12030;50.376;8.762;2023-06-24T06:53:34;19.30;99.90
23703;DHT22;12030;50.376;8.762;2023-06-24T06:55:59;19.40;99.90
23703;DHT22;12030;50.376;8.762;2023-06-24T06:58:25;19.60;99.90
23703;DHT22;12030;50.376;8.762;2023-06-24T07:00:50;19.80;99.90
23703;DHT22;12030;50.376;8.762;2023-06-24T07:03:16;19.80;99.90
23703;DHT22;12030;50.376;8.762;2023-06-24T07:05:42;19.90;99.90
23703;DHT22;12030;50.376;8.762;2023-06-24T07:08:07;19.90;99.90
23703;DHT22;12030;50.376;8.762;2023-06-24T07:10:33;20.00;99.90
23703;DHT22;12030;50.376;8.762;2023-06-24T07:12:59;20.20;99.90
23703;DHT22;12030;50.376;8.762;2023-06-24T07:15:25;20.40;99.90
23703;DHT22;12030;50.376;8.762;2023-06-24T07:17:51;20.50;99.90
23703;DHT22;12030;50.376;8.762;2023-06-24T07:20:17;20.50;99.90
23703;DHT22;12030;50.376;8.762;2023-06-24T07:22:42;20.60;99.90
23703;DHT22;12030;50.376;8.762;2023-06-24T07:25:08;20.70;99.90
23703;DHT22;12030;50.376;8.762;2023-06-24T07:27:33;20.80;99.90
23703;DHT22;12030;50.376;8.762;2023-06-24T07:29:59;20.90;99.90
23703;DHT22;12030;50.376;8.762;2023-06-24T07:32:24;21.00;99.90
23703;DHT22;12030;50.376;8.762;2023-06-24T07:34:50;21.10;99.90
23703;DHT22;12030;50.376;8.762;2023-06-24T07:37:15;21.20;99.90
23703;DHT22;12030;50.376;8.762;2023-06-24T07:39:41;21.20;99.90
23703;DHT22;12030;50.376;8.762;2023-06-24T07:42:07;21.30;99.90
23703;DHT22;12030;50.376;8.762;2023-06-24T07:44:32;21.30;99.90
23703;DHT22;12030;50.376;8.762;2023-06-24T07:46:58;21.40;99.90
23703;DHT22;12030;50.376;8.762;2023-06-24T07:49:24;21.50;99.90
23703;DHT22;12030;50.376;8.762;2023-06-24T07:51:49;21.60;99.90
23703;DHT22;12030;50.376;8.762;2023-06-24T07:54:15;21.70;99.90
23703;DHT22;12030;50.376;8.762;2023-06-24T07:56:40;21.80;99.90
23703;DHT22;12030;50.376;8.762;2023-06-24T07:59:07;21.90;99.90
23703;DHT22;12030;50.376;8.762;2023-06-24T08:01:32;22.00;99.90
23703;DHT22;12030;50.376;8.762;2023-06-24T08:03:58;22.00;99.90
23703;DHT22;12030;50.376;8.762;2023-06-24T08:06:23;22.10;99.90
23703;DHT22;12030;50.376;8.762;2023-06-24T08:08:49;22.20;99.90
23703;DHT22;12030;50.376;8.762;2023-06-24T08:11:15;22.30;99.90
23703;DHT22;12030;50.376;8.762;2023-06-24T08:13:41;22.40;99.90
23703;DHT22;12030;50.376;8.762;2023-06-24T08:16:07;22.50;99.90
23703;DHT22;12030;50.376;8.762;2023-06-24T08:18:32;22.70;99.90
23703;DHT22;12030;50.376;8.762;2023-06-24T08:20:59;22.80;99.90
23703;DHT22;12030;50.376;8.762;2023-06-24T08:23:24;22.90;99.90
23703;DHT22;12030;50.376;8.762;2023-06-24T08:25:50;23.10;99.90
23703;DHT22;12030;50.376;8.762;2023-06-24T08:28:15;22.90;99.90
23703;DHT22;12030;50.376;8.762;2023-06-24T08:30:41;23.20;99.90
23703;DHT22;12030;50.376;8.762;2023-06-24T08:33:06;23.30;99.90
23703;DHT22;12030;50.376;8.762;2023-06-24T08:35:32;23.40;99.90
23703;DHT22;12030;50.376;8.762;2023-06-24T08:37:57;23.50;99.90
23703;DHT22;12030;50.376;8.762;2023-06-24T08:40:23;23.60;99.90
23703;DHT22;12030;50.376;8.762;2023-06-24T08:42:48;23.70;99.90
23703;DHT22;12030;50.376;8.762;2023-06-24T08:45:14;23.80;99.90
23703;DHT22;12030;50.376;8.762;2023-06-24T08:47:41;23.90;99.90
23703;DHT22;12030;50.376;8.762;2023-06-24T08:50:11;24.00;99.90
23703;DHT22;12030;50.376;8.762;2023-06-24T08:52:38;24.10;99.90
23703;DHT22;12030;50.376;8.762;2023-06-24T08:55:09;24.10;99.90
23703;DHT22;12030;50.376;8.762;2023-06-24T08:57:36;24.20;99.90
23703;DHT22;12030;50.376;8.762;2023-06-24T09:00:01;24.30;99.90
23703;DHT22;12030;50.376;8.762;2023-06-24T09:02:29;24.50;99.90
23703;DHT22;12030;50.376;8.762;2023-06-24T09:04:55;24.70;99.90
23703;DHT22;12030;50.376;8.762;2023-06-24T09:07:27;24.80;99.90
23703;DHT22;12030;50.376;8.762;2023-06-24T09:09:56;24.80;99.90
23703;DHT22;12030;50.376;8.762;2023-06-24T09:12:23;24.90;99.90
23703;DHT22;12030;50.376;8.762;2023-06-24T09:14:50;25.00;99.90
23703;DHT22;12030;50.376;8.762;2023-06-24T09:17:16;25.10;99.90
23703;DHT22;12030;50.376;8.762;2023-06-24T09:19:42;25.10;99.90
23703;DHT22;12030;50.376;8.762;2023-06-24T09:22:09;25.30;99.90
23703;DHT22;12030;50.376;8.762;2023-06-24T09:24:41;25.30;99.90
23703;DHT22;12030;50.376;8.762;2023-06-24T09:27:07;25.40;99.90
23703;DHT22;12030;50.376;8.762;2023-06-24T09:29:35;25.50;99.90
23703;DHT22;12030;50.376;8.762;2023-06-24T09:32:04;25.70;99.90
23703;DHT22;12030;50.376;8.762;2023-06-24T09:34:30;25.80;99.90
23703;DHT22;12030;50.376;8.762;2023-06-24T09:36:57;25.80;99.90
23703;DHT22;12030;50.376;8.762;2023-06-24T09:39:24;25.80;98.80
23703;DHT22;12030;50.376;8.762;2023-06-24T09:42:01;25.80;99.40
23703;DHT22;12030;50.376;8.762;2023-06-24T09:44:28;25.80;99.90
23703;DHT22;12030;50.376;8.762;2023-06-24T09:46:54;26.00;99.90
23703;DHT22;12030;50.376;8.762;2023-06-24T09:49:21;26.00;99.90
23703;DHT22;12030;50.376;8.762;2023-06-24T09:51:49;26.00;98.20
23703;DHT22;12030;50.376;8.762;2023-06-24T09:54:15;26.20;99.90
23703;DHT22;12030;50.376;8.762;2023-06-24T09:56:51;26.20;97.30
23703;DHT22;12030;50.376;8.762;2023-06-24T09:59:19;26.30;99.90
23703;DHT22;12030;50.376;8.762;2023-06-24T10:01:49;26.40;97.90
23703;DHT22;12030;50.376;8.762;2023-06-24T10:04:19;26.20;95.60
23703;DHT22;12030;50.376;8.762;2023-06-24T10:06:45;26.30;98.90
23703;DHT22;12030;50.376;8.762;2023-06-24T10:09:10;26.40;96.50
23703;DHT22;12030;50.376;8.762;2023-06-24T10:11:39;26.30;96.00
23703;DHT22;12030;50.376;8.762;2023-06-24T10:14:05;26.40;96.00
23703;DHT22;12030;50.376;8.762;2023-06-24T10:16:31;26.50;96.70
23703;DHT22;12030;50.376;8.762;2023-06-24T10:19:00;26.60;96.40
23703;DHT22;12030;50.376;8.762;2023-06-24T10:24:30;26.70;96.80
23703;DHT22;12030;50.376;8.762;2023-06-24T10:27:08;26.80;98.10
23703;DHT22;12030;50.376;8.762;2023-06-24T10:29:37;26.80;96.50
23703;DHT22;12030;50.376;8.762;2023-06-24T10:32:06;26.90;96.20
23703;DHT22;12030;50.376;8.762;2023-06-24T10:34:43;26.80;96.80
23703;DHT22;12030;50.376;8.762;2023-06-24T10:37:20;26.60;97.80
23703;DHT22;12030;50.376;8.762;2023-06-24T10:39:56;26.70;98.20
23703;DHT22;12030;50.376;8.762;2023-06-24T10:42:38;27.00;95.60
23703;DHT22;12030;50.376;8.762;2023-06-24T10:47:54;27.50;95.50
23703;DHT22;12030;50.376;8.762;2023-06-24T10:50:22;27.60;95.00
23703;DHT22;12030;50.376;8.762;2023-06-24T10:52:53;27.80;95.20
23703;DHT22;12030;50.376;8.762;2023-06-24T10:55:23;27.90;97.60
23703;DHT22;12030;50.376;8.762;2023-06-24T10:57:51;28.00;95.60
23703;DHT22;12030;50.376;8.762;2023-06-24T11:00:16;27.70;93.20
23703;DHT22;12030;50.376;8.762;2023-06-24T11:02:42;27.70;95.60
23703;DHT22;12030;50.376;8.762;2023-06-24T11:05:08;27.40;93.70
23703;DHT22;12030;50.376;8.762;2023-06-24T11:07:36;27.20;94.60
23703;DHT22;12030;50.376;8.762;2023-06-24T11:12:35;27.00;95.40
23703;DHT22;12030;50.376;8.762;2023-06-24T11:15:03;27.00;95.20
23703;DHT22;12030;50.376;8.762;2023-06-24T11:17:29;26.90;94.50
23703;DHT22;12030;50.376;8.762;2023-06-24T11:19:55;27.00;94.30
23703;DHT22;12030;50.376;8.762;2023-06-24T11:22:22;27.40;95.70
23703;DHT22;12030;50.376;8.762;2023-06-24T11:24:48;27.40;92.60
23703;DHT22;12030;50.376;8.762;2023-06-24T11:27:13;27.70;93.40
23703;DHT22;12030;50.376;8.762;2023-06-24T11:29:39;27.90;92.20
23703;DHT22;12030;50.376;8.762;2023-06-24T11:32:07;28.20;92.70
23703;DHT22;12030;50.376;8.762;2023-06-24T11:34:34;28.30;91.70
23703;DHT22;12030;50.376;8.762;2023-06-24T11:37:11;28.10;90.80
23703;DHT22;12030;50.376;8.762;2023-06-24T11:39:38;28.00;90.60
23703;DHT22;12030;50.376;8.762;2023-06-24T11:42:06;28.10;90.90
23703;DHT22;12030;50.376;8.762;2023-06-24T11:44:32;28.10;90.40
23703;DHT22;12030;50.376;8.762;2023-06-24T11:47:08;28.20;90.20
23703;DHT22;12030;50.376;8.762;2023-06-24T11:49:56;28.20;91.50
23703;DHT22;12030;50.376;8.762;2023-06-24T11:52:53;28.50;92.40
23703;DHT22;12030;50.376;8.762;2023-06-24T11:55:24;29.00;92.10
23703;DHT22;12030;50.376;8.762;2023-06-24T11:57:56;29.20;91.00
23703;DHT22;12030;50.376;8.762;2023-06-24T12:00:32;29.40;91.70
23703;DHT22;12030;50.376;8.762;2023-06-24T12:03:03;29.70;86.80
23703;DHT22;12030;50.376;8.762;2023-06-24T12:05:31;29.40;85.20
23703;DHT22;12030;50.376;8.762;2023-06-24T12:08:01;29.20;90.90
23703;DHT22;12030;50.376;8.762;2023-06-24T12:10:28;29.20;92.80
23703;DHT22;12030;50.376;8.762;2023-06-24T12:12:55;29.00;91.50
23703;DHT22;12030;50.376;8.762;2023-06-24T12:15:21;28.90;91.10
23703;DHT22;12030;50.376;8.762;2023-06-24T12:17:47;29.30;92.20
23703;DHT22;12030;50.376;8.762;2023-06-24T12:20:14;29.70;91.50
23703;DHT22;12030;50.376;8.762;2023-06-24T12:22:39;29.90;89.20
23703;DHT22;12030;50.376;8.762;2023-06-24T12:25:05;29.70;82.80
23703;DHT22;12030;50.376;8.762;2023-06-24T12:27:31;29.90;83.60
23703;DHT22;12030;50.376;8.762;2023-06-24T12:29:56;30.20;88.40
23703;DHT22;12030;50.376;8.762;2023-06-24T12:32:22;30.50;89.60
23703;DHT22;12030;50.376;8.762;2023-06-24T12:34:47;30.80;88.40
23703;DHT22;12030;50.376;8.762;2023-06-24T12:37:13;30.90;88.60
23703;DHT22;12030;50.376;8.762;2023-06-24T12:39:38;31.20;85.20
23703;DHT22;12030;50.376;8.762;2023-06-24T12:42:04;31.20;82.00
23703;DHT22;12030;50.376;8.762;2023-06-24T12:44:31;30.80;83.10
23703;DHT22;12030;50.376;8.762;2023-06-24T12:46:56;30.50;82.80
23703;DHT22;12030;50.376;8.762;2023-06-24T12:49:22;30.40;87.80
23703;DHT22;12030;50.376;8.762;2023-06-24T12:51:47;30.40;86.10
23703;DHT22;12030;50.376;8.762;2023-06-24T12:54:13;30.70;89.50
23703;DHT22;12030;50.376;8.762;2023-06-24T12:56:38;30.90;82.50
23703;DHT22;12030;50.376;8.762;2023-06-24T12:59:04;31.00;84.80
23703;DHT22;12030;50.376;8.762;2023-06-24T13:01:31;31.30;81.40
23703;DHT22;12030;50.376;8.762;2023-06-24T13:03:56;31.40;84.80
23703;DHT22;12030;50.376;8.762;2023-06-24T13:06:22;31.60;84.70
23703;DHT22;12030;50.376;8.762;2023-06-24T13:08:47;32.00;82.10
23703;DHT22;12030;50.376;8.762;2023-06-24T13:11:13;32.00;80.40
23703;DHT22;12030;50.376;8.762;2023-06-24T13:13:38;31.80;80.40
23703;DHT22;12030;50.376;8.762;2023-06-24T13:16:04;31.60;83.00
23703;DHT22;12030;50.376;8.762;2023-06-24T13:18:29;31.30;82.00
23703;DHT22;12030;50.376;8.762;2023-06-24T13:20:55;31.00;83.30
23703;DHT22;12030;50.376;8.762;2023-06-24T13:23:20;30.70;81.50
23703;DHT22;12030;50.376;8.762;2023-06-24T13:25:46;30.80;78.70
23703;DHT22;12030;50.376;8.762;2023-06-24T13:28:11;31.00;75.80
23703;DHT22;12030;50.376;8.762;2023-06-24T13:30:37;30.80;75.80
23703;DHT22;12030;50.376;8.762;2023-06-24T13:33:02;30.60;75.80
23703;DHT22;12030;50.376;8.762;2023-06-24T13:35:28;30.10;77.60
23703;DHT22;12030;50.376;8.762;2023-06-24T13:37:53;29.90;86.30
23703;DHT22;12030;50.376;8.762;2023-06-24T13:40:19;29.70;84.00
23703;DHT22;12030;50.376;8.762;2023-06-24T13:42:44;29.40;77.90
23703;DHT22;12030;50.376;8.762;2023-06-24T13:45:10;29.20;77.60
23703;DHT22;12030;50.376;8.762;2023-06-24T13:47:36;29.10;80.30
23703;DHT22;12030;50.376;8.762;2023-06-24T13:50:02;29.00;81.80
23703;DHT22;12030;50.376;8.762;2023-06-24T13:52:28;28.80;84.30
23703;DHT22;12030;50.376;8.762;2023-06-24T13:54:54;28.80;88.30
23703;DHT22;12030;50.376;8.762;2023-06-24T13:57:19;28.80;80.70
23703;DHT22;12030;50.376;8.762;2023-06-24T13:59:45;28.80;86.40
23703;DHT22;12030;50.376;8.762;2023-06-24T14:02:11;28.80;88.50
23703;DHT22;12030;50.376;8.762;2023-06-24T14:04:37;28.70;88.80
23703;DHT22;12030;50.376;8.762;2023-06-24T14:07:05;28.70;89.90
23703;DHT22;12030;50.376;8.762;2023-06-24T14:09:31;28.60;88.70
23703;DHT22;12030;50.376;8.762;2023-06-24T14:11:57;28.70;89.20
23703;DHT22;12030;50.376;8.762;2023-06-24T14:14:23;28.70;89.90
23703;DHT22;12030;50.376;8.762;2023-06-24T14:16:48;28.70;89.50
23703;DHT22;12030;50.376;8.762;2023-06-24T14:19:14;28.70;89.30
23703;DHT22;12030;50.376;8.762;2023-06-24T14:21:39;29.00;91.20
23703;DHT22;12030;50.376;8.762;2023-06-24T14:24:06;29.70;84.40
23703;DHT22;12030;50.376;8.762;2023-06-24T14:26:32;30.50;83.50
23703;DHT22;12030;50.376;8.762;2023-06-24T14:28:58;31.00;83.20
23703;DHT22;12030;50.376;8.762;2023-06-24T14:31:23;31.50;82.20
23703;DHT22;12030;50.376;8.762;2023-06-24T14:33:49;31.40;75.10
23703;DHT22;12030;50.376;8.762;2023-06-24T14:36:15;31.10;74.70
23703;DHT22;12030;50.376;8.762;2023-06-24T14:38:40;31.50;79.30
23703;DHT22;12030;50.376;8.762;2023-06-24T14:41:08;31.70;80.40
23703;DHT22;12030;50.376;8.762;2023-06-24T14:43:34;31.60;76.60
23703;DHT22;12030;50.376;8.762;2023-06-24T14:45:59;31.30;76.40
23703;DHT22;12030;50.376;8.762;2023-06-24T14:48:25;31.10;80.20
23703;DHT22;12030;50.376;8.762;2023-06-24T14:50:50;31.00;81.80
23703;DHT22;12030;50.376;8.762;2023-06-24T14:53:16;30.70;81.80
23703;DHT22;12030;50.376;8.762;2023-06-24T14:55:41;30.80;83.20
23703;DHT22;12030;50.376;8.762;2023-06-24T14:58:07;31.50;80.70
23703;DHT22;12030;50.376;8.762;2023-06-24T15:00:32;31.50;80.50
23703;DHT22;12030;50.376;8.762;2023-06-24T15:02:58;31.80;77.20
23703;DHT22;12030;50.376;8.762;2023-06-24T15:05:23;32.10;80.30
23703;DHT22;12030;50.376;8.762;2023-06-24T15:07:49;32.10;78.50
23703;DHT22;12030;50.376;8.762;2023-06-24T15:10:15;32.30;77.10
23703;DHT22;12030;50.376;8.762;2023-06-24T15:12:40;32.60;76.40
23703;DHT22;12030;50.376;8.762;2023-06-24T15:15:06;32.60;77.70
23703;DHT22;12030;50.376;8.762;2023-06-24T15:17:32;32.80;75.50
23703;DHT22;12030;50.376;8.762;2023-06-24T15:20:00;32.90;74.20
23703;DHT22;12030;50.376;8.762;2023-06-24T15:22:25;32.80;70.50
23703;DHT22;12030;50.376;8.762;2023-06-24T15:24:51;32.90;74.90
23703;DHT22;12030;50.376;8.762;2023-06-24T15:27:16;32.90;72.50
23703;DHT22;12030;50.376;8.762;2023-06-24T15:29:42;33.00;71.60
23703;DHT22;12030;50.376;8.762;2023-06-24T15:32:08;33.00;74.10
23703;DHT22;12030;50.376;8.762;2023-06-24T15:34:33;33.10;72.80
23703;DHT22;12030;50.376;8.762;2023-06-24T15:36:59;33.40;74.90
23703;DHT22;12030;50.376;8.762;2023-06-24T15:39:24;33.80;69.80
23703;DHT22;12030;50.376;8.762;2023-06-24T15:41:49;33.70;66.30
23703;DHT22;12030;50.376;8.762;2023-06-24T15:44:15;33.40;65.20
23703;DHT22;12030;50.376;8.762;2023-06-24T15:46:41;33.50;65.80